Time,TemperatureF,DewpointF,PressureIn,WindDirection,WindDirectionDegrees,WindSpeedMPH,WindSpeedGustMPH,Humidity,HourlyPrecipIn,Conditions,Clouds,dailyrainin,SolarRadiationWatts/m^2,SoftwareType,DateUTC
2013-07-19 00:00:00,79.0,73.0,-100.00,SSW,202,2.0,-999.0,80,-99.99,,,-99.99,0.000000,,2013-07-19 04:00:00,
2013-07-19 00:44:00,79.0,73.0,-100.00,SSW,202,2.0,-999.0,80,-99.99,,,-99.99,0.000000,,2013-07-19 04:44:00,
2013-07-19 00:52:00,79.0,73.0,-100.00,SSW,202,2.0,-999.0,80,-99.99,,,-99.99,0.000000,,2013-07-19 04:52:00,
2013-07-19 03:00:00,78.0,73.0,-100.00,SSW,202,3.0,-999.0,84,-99.99,,,-99.99,0.000000,,2013-07-19 07:00:00,
2013-07-19 03:43:00,78.0,73.0,-100.00,SSW,202,3.0,-999.0,84,-99.99,,,-99.99,0.000000,,2013-07-19 07:43:00,
2013-07-19 03:53:00,78.0,73.0,-100.00,SSW,202,3.0,-999.0,84,-99.99,,,-99.99,0.000000,,2013-07-19 07:53:00,
2013-07-19 04:00:00,77.0,74.0,-100.00,SSW,202,3.0,-999.0,87,-99.99,,,-99.99,0.000000,,2013-07-19 08:00:00,
2013-07-19 04:43:00,77.0,74.0,-100.00,SSW,202,3.0,-999.0,87,-99.99,,,-99.99,0.000000,,2013-07-19 08:43:00,
2013-07-19 04:52:00,77.0,74.0,-100.00,SSW,202,3.0,-999.0,87,-99.99,,,-99.99,0.000000,,2013-07-19 08:52:00,
2013-07-19 07:00:00,76.0,74.0,-100.00,South,180,4.0,-999.0,93,-99.99,,,-99.99,9.280000,,2013-07-19 11:00:00,
2013-07-19 07:43:00,76.0,74.0,-100.00,South,180,4.0,-999.0,93,-99.99,,,-99.99,9.280000,,2013-07-19 11:43:00,
2013-07-19 07:52:00,76.0,74.0,-100.00,South,180,4.0,-999.0,93,-99.99,,,-99.99,9.280000,,2013-07-19 11:52:00,
2013-07-19 08:00:00,78.0,74.0,-100.00,SSW,202,4.0,-999.0,87,-99.99,,,-99.99,107.879997,,2013-07-19 12:00:00,
2013-07-19 08:44:00,78.0,74.0,-100.00,SSW,202,4.0,-999.0,87,-99.99,,,-99.99,107.879997,,2013-07-19 12:44:00,
2013-07-19 08:53:00,78.0,74.0,-100.00,SSW,202,4.0,-999.0,87,-99.99,,,-99.99,107.879997,,2013-07-19 12:53:00,
2013-07-19 09:00:00,81.0,74.0,-100.00,SSW,202,6.0,-999.0,78,-99.99,,,-99.99,273.760010,,2013-07-19 13:00:00,
2013-07-19 09:43:00,81.0,74.0,-100.00,SSW,202,6.0,-999.0,78,-99.99,,,-99.99,273.760010,,2013-07-19 13:43:00,
2013-07-19 09:53:00,81.0,74.0,-100.00,SSW,202,6.0,-999.0,78,-99.99,,,-99.99,273.760010,,2013-07-19 13:53:00,
2013-07-19 10:00:00,84.0,73.0,-100.00,SW,225,7.0,-999.0,71,-99.99,,,-99.99,446.600006,,2013-07-19 14:00:00,
2013-07-19 10:43:00,84.0,73.0,-100.00,SW,225,7.0,-999.0,71,-99.99,,,-99.99,446.600006,,2013-07-19 14:43:00,
2013-07-19 10:53:00,84.0,73.0,-100.00,SW,225,7.0,-999.0,71,-99.99,,,-99.99,446.600006,,2013-07-19 14:53:00,
2013-07-19 11:00:00,86.0,73.0,-100.00,WSW,247,7.0,-999.0,66,-99.99,,,-99.99,606.679993,,2013-07-19 15:00:00,
2013-07-19 11:43:00,86.0,73.0,-100.00,WSW,247,7.0,-999.0,66,-99.99,,,-99.99,606.679993,,2013-07-19 15:43:00,
2013-07-19 11:52:00,86.0,73.0,-100.00,WSW,247,7.0,-999.0,66,-99.99,,,-99.99,606.679993,,2013-07-19 15:52:00,
2013-07-19 13:00:00,90.0,72.0,-100.00,SW,225,8.0,-999.0,56,-99.99,,,-99.99,849.119995,,2013-07-19 17:00:00,
2013-07-19 13:43:00,90.0,72.0,-100.00,SW,225,8.0,-999.0,56,-99.99,,,-99.99,849.119995,,2013-07-19 17:43:00,
2013-07-19 13:52:00,90.0,72.0,-100.00,SW,225,8.0,-999.0,56,-99.99,,,-99.99,849.119995,,2013-07-19 17:52:00,
2013-07-19 14:00:00,91.0,71.0,-100.00,SW,225,9.0,-999.0,52,-99.99,,,-99.99,872.320007,,2013-07-19 18:00:00,
2013-07-19 14:43:00,91.0,71.0,-100.00,SW,225,9.0,-999.0,52,-99.99,,,-99.99,872.320007,,2013-07-19 18:43:00,
2013-07-19 14:52:00,91.0,71.0,-100.00,SW,225,9.0,-999.0,52,-99.99,,,-99.99,872.320007,,2013-07-19 18:52:00,
2013-07-19 16:00:00,92.0,70.0,-100.00,SW,225,9.0,-999.0,48,-99.99,,,-99.99,807.359985,,2013-07-19 20:00:00,
2013-07-19 16:43:00,92.0,70.0,-100.00,SW,225,9.0,-999.0,48,-99.99,,,-99.99,807.359985,,2013-07-19 20:43:00,
2013-07-19 16:52:00,92.0,70.0,-100.00,SW,225,9.0,-999.0,48,-99.99,,,-99.99,807.359985,,2013-07-19 20:52:00,
2013-07-19 17:00:00,92.0,69.0,-100.00,SW,225,9.0,-999.0,46,-99.99,,,-99.99,693.679993,,2013-07-19 21:00:00,
2013-07-19 17:43:00,92.0,69.0,-100.00,SW,225,9.0,-999.0,46,-99.99,,,-99.99,693.679993,,2013-07-19 21:43:00,
2013-07-19 17:52:00,92.0,69.0,-100.00,SW,225,9.0,-999.0,46,-99.99,,,-99.99,693.679993,,2013-07-19 21:52:00,
2013-07-19 18:00:00,91.0,69.0,-100.00,WSW,247,8.0,-999.0,47,-99.99,,,-99.99,459.359985,,2013-07-19 22:00:00,
2013-07-19 18:43:00,91.0,69.0,-100.00,WSW,247,8.0,-999.0,47,-99.99,,,-99.99,459.359985,,2013-07-19 22:43:00,
2013-07-19 18:52:00,91.0,69.0,-100.00,WSW,247,8.0,-999.0,47,-99.99,,,-99.99,459.359985,,2013-07-19 22:52:00,
2013-07-19 19:00:00,90.0,69.0,-100.00,WSW,247,7.0,-999.0,50,-99.99,,,-99.99,321.320007,,2013-07-19 23:00:00,
2013-07-19 19:43:00,90.0,69.0,-100.00,WSW,247,7.0,-999.0,50,-99.99,,,-99.99,321.320007,,2013-07-19 23:43:00,
2013-07-19 19:52:00,90.0,69.0,-100.00,WSW,247,7.0,-999.0,50,-99.99,,,-99.99,321.320007,,2013-07-19 23:52:00,
2013-07-19 21:00:00,87.0,70.0,-100.00,SW,225,4.0,-999.0,57,-99.99,,,-99.99,56.840000,,2013-07-20 01:00:00,
2013-07-19 21:32:00,87.0,70.0,-100.00,SW,225,4.0,-999.0,57,-99.99,,,-99.99,56.840000,,2013-07-20 01:32:00,
2013-07-19 21:52:00,87.0,70.0,-100.00,SW,225,4.0,-999.0,57,-99.99,,,-99.99,56.840000,,2013-07-20 01:52:00,
2013-07-19 22:00:00,85.0,69.0,-100.00,SW,225,4.0,-999.0,60,-99.99,,,-99.99,1.160000,,2013-07-20 02:00:00,
2013-07-19 22:33:00,85.0,69.0,-100.00,SW,225,4.0,-999.0,60,-99.99,,,-99.99,1.160000,,2013-07-20 02:33:00,
2013-07-19 22:44:00,85.0,69.0,-100.00,SW,225,4.0,-999.0,60,-99.99,,,-99.99,1.160000,,2013-07-20 02:44:00,
2013-07-19 22:52:00,85.0,69.0,-100.00,SW,225,4.0,-999.0,60,-99.99,,,-99.99,1.160000,,2013-07-20 02:52:00,
2013-07-19 23:00:00,85.0,69.0,-100.00,SW,225,5.0,-999.0,59,-99.99,,,-99.99,0.000000,,2013-07-20 03:00:00,
2013-07-19 23:44:00,85.0,69.0,-100.00,SW,225,5.0,-999.0,59,-99.99,,,-99.99,0.000000,,2013-07-20 03:44:00,
2013-07-19 23:53:00,85.0,69.0,-100.00,SW,225,5.0,-999.0,59,-99.99,,,-99.99,0.000000,,2013-07-20 03:53:00,